createdAt,value
2023-04-29T00:00:01.849Z,118.82
2023-04-29T00:01:02.026Z,122.67
2023-04-29T00:02:02.159Z,120.71
2023-04-29T00:03:02.492Z,119.93
2023-04-29T00:04:02.391Z,118.37
2023-04-29T00:05:02.484Z,119.37
2023-04-29T00:06:02.513Z,120.56
2023-04-29T00:07:02.353Z,121.20
2023-04-29T00:08:02.323Z,121.04
2023-04-29T00:09:02.372Z,121.48
2023-04-29T00:10:02.308Z,121.02
2023-04-29T00:11:02.333Z,120.01
2023-04-29T00:12:02.407Z,118.50
2023-04-29T00:13:02.352Z,118.29
2023-04-29T00:14:02.371Z,120.47
2023-04-29T00:15:02.389Z,121.86
2023-04-29T00:16:02.359Z,117.85
2023-04-29T00:17:02.396Z,120.23
2023-04-29T00:18:02.462Z,120.29
2023-04-29T00:19:02.384Z,120.25
2023-04-29T00:20:02.395Z,117.52
2023-04-29T00:21:02.378Z,117.68
2023-04-29T00:22:02.357Z,119.24
2023-04-29T00:23:02.368Z,119.76
2023-04-29T00:24:02.402Z,120.12
2023-04-29T00:25:02.626Z,119.69
2023-04-29T00:26:02.733Z,119.03
2023-04-29T00:27:02.834Z,122.21
2023-04-29T00:28:03.005Z,120.75
2023-04-29T00:29:03.056Z,119.09
2023-04-29T00:30:03.202Z,119.87
2023-04-29T00:31:03.236Z,123.33
2023-04-29T00:32:03.173Z,120.96
2023-04-29T00:33:03.206Z,118.74
2023-04-29T00:34:03.144Z,121.47
2023-04-29T00:35:03.198Z,119.55
2023-04-29T00:36:03.169Z,121.52
2023-04-29T00:37:03.207Z,120.30
2023-04-29T00:38:03.302Z,121.23
2023-04-29T00:39:03.378Z,122.07
2023-04-29T00:40:03.502Z,121.06
2023-04-29T00:41:03.512Z,121.30
2023-04-29T00:42:03.499Z,120.28
2023-04-29T00:43:03.476Z,120.12
2023-04-29T00:44:03.496Z,118.72
2023-04-29T00:45:03.498Z,120.87
2023-04-29T00:46:03.583Z,120.17
2023-04-29T00:47:03.638Z,120.05
2023-04-29T00:48:03.738Z,120.66
2023-04-29T00:49:03.662Z,120.29
2023-04-29T00:50:03.646Z,122.62
2023-04-29T00:51:03.678Z,116.60
2023-04-29T00:52:03.671Z,120.49
2023-04-29T00:53:03.768Z,121.17
2023-04-29T00:54:03.789Z,121.53
2023-04-29T00:55:03.795Z,120.71
2023-04-29T00:56:03.792Z,119.20
2023-04-29T00:57:03.789Z,119.09
2023-04-29T00:58:03.766Z,120.12
2023-04-29T00:59:03.865Z,120.98
2023-04-29T01:00:03.911Z,121.13
2023-04-29T01:01:04.061Z,122.11
2023-04-29T01:02:04.189Z,123.62
2023-04-29T01:03:04.376Z,122.70
2023-04-29T01:04:04.465Z,122.27
2023-04-29T01:05:04.340Z,120.94
2023-04-29T01:06:04.335Z,122.62
2023-04-29T01:07:04.333Z,122.60
2023-04-29T01:08:04.354Z,121.59
2023-04-29T01:09:04.356Z,122.21
2023-04-29T01:10:04.475Z,121.99
2023-04-29T01:11:04.468Z,121.91
2023-04-29T01:12:04.446Z,122.34
2023-04-29T01:13:04.450Z,117.43
2023-04-29T01:14:04.479Z,122.16
2023-04-29T01:15:04.504Z,125.45
2023-04-29T01:16:04.699Z,121.94
2023-04-29T01:17:04.548Z,123.27
2023-04-29T01:18:04.743Z,123.04
2023-04-29T01:19:04.737Z,121.13
2023-04-29T01:20:04.863Z,122.12
2023-04-29T01:21:04.957Z,121.31
2023-04-29T01:22:04.950Z,122.66
2023-04-29T01:23:04.980Z,122.24
2023-04-29T01:24:04.979Z,123.62
2023-04-29T01:25:04.977Z,120.06
2023-04-29T01:26:04.995Z,121.88
2023-04-29T01:27:05.109Z,119.80
2023-04-29T01:28:05.115Z,121.57
2023-04-29T01:29:05.253Z,121.83
2023-04-29T01:30:05.334Z,120.50
2023-04-29T01:31:05.318Z,121.21
2023-04-29T01:32:05.267Z,119.27
2023-04-29T01:33:05.293Z,119.47
2023-04-29T01:34:05.291Z,122.08
2023-04-29T01:35:05.290Z,120.66
2023-04-29T01:36:05.290Z,121.72
2023-04-29T01:37:05.294Z,123.34
2023-04-29T01:38:05.313Z,119.57
2023-04-29T01:39:05.308Z,121.38
2023-04-29T01:40:05.380Z,122.05
2023-04-29T01:41:05.380Z,122.15
2023-04-29T01:42:05.405Z,122.23
2023-04-29T01:43:05.397Z,121.20
2023-04-29T01:44:05.407Z,122.77
2023-04-29T01:45:05.416Z,123.88
2023-04-29T01:46:05.521Z,121.43
2023-04-29T01:47:05.544Z,121.07
2023-04-29T01:48:05.555Z,121.96
2023-04-29T01:49:05.545Z,118.74
2023-04-29T01:50:05.540Z,120.10
2023-04-29T01:51:05.560Z,120.56
2023-04-29T01:52:05.684Z,121.54
2023-04-29T01:53:05.744Z,121.75
2023-04-29T01:54:05.837Z,123.38
2023-04-29T01:55:05.937Z,122.26
2023-04-29T01:56:05.930Z,122.47
2023-04-29T01:57:05.957Z,122.62
2023-04-29T01:58:05.966Z,122.02
2023-04-29T01:59:05.974Z,121.57
2023-04-29T02:00:06.024Z,122.08
2023-04-29T02:01:06.075Z,123.32
2023-04-29T02:02:06.051Z,122.12
2023-04-29T02:03:06.207Z,123.58
2023-04-29T02:04:06.131Z,123.17
2023-04-29T02:05:06.072Z,122.55
2023-04-29T02:06:06.105Z,121.23
2023-04-29T02:07:06.224Z,122.16
2023-04-29T02:08:06.279Z,125.06
2023-04-29T02:09:06.331Z,122.17
2023-04-29T02:10:06.352Z,121.93
2023-04-29T02:11:06.365Z,120.89
2023-04-29T02:12:06.306Z,122.23
2023-04-29T02:13:06.322Z,122.57
2023-04-29T02:14:06.389Z,123.12
2023-04-29T02:15:06.561Z,123.40
2023-04-29T02:16:06.684Z,123.63
2023-04-29T02:17:06.607Z,123.61
2023-04-29T02:18:06.629Z,119.29
2023-04-29T02:19:06.633Z,121.98
2023-04-29T02:20:06.613Z,122.73
2023-04-29T02:21:06.637Z,123.74
2023-04-29T02:22:06.698Z,124.40
2023-04-29T02:23:06.811Z,123.43
2023-04-29T02:24:06.773Z,123.74
2023-04-29T02:25:06.797Z,119.72
2023-04-29T02:26:06.830Z,123.06
2023-04-29T02:27:06.836Z,121.78
2023-04-29T02:28:06.842Z,123.04
2023-04-29T02:29:06.981Z,122.41
2023-04-29T02:30:07.098Z,121.76
2023-04-29T02:31:07.218Z,122.09
2023-04-29T02:32:07.253Z,123.48
2023-04-29T02:33:08.503Z,123.00
2023-04-29T02:34:07.327Z,121.21
2023-04-29T02:35:07.341Z,119.77
2023-04-29T02:36:07.358Z,122.89
2023-04-29T02:37:07.357Z,123.60
2023-04-29T02:38:07.323Z,122.12
2023-04-29T02:39:07.383Z,122.56
2023-04-29T02:40:07.447Z,124.04
2023-04-29T02:41:07.410Z,121.91
2023-04-29T02:42:07.432Z,124.09
2023-04-29T02:43:07.459Z,123.85
2023-04-29T02:44:07.458Z,122.56
2023-04-29T02:45:07.466Z,122.64
2023-04-29T02:46:07.514Z,121.83
2023-04-29T02:47:07.431Z,119.14
2023-04-29T02:48:07.548Z,123.08
2023-04-29T02:49:07.442Z,121.12
2023-04-29T02:50:07.504Z,122.30
2023-04-29T02:51:07.510Z,122.87
2023-04-29T02:52:07.524Z,121.16
2023-04-29T02:53:07.533Z,122.41
2023-04-29T02:54:07.493Z,123.85
2023-04-29T02:55:07.635Z,125.84
2023-04-29T02:56:07.701Z,122.16
2023-04-29T02:57:07.758Z,120.24
2023-04-29T02:58:07.740Z,123.10
2023-04-29T02:59:07.716Z,122.02
2023-04-29T03:00:07.728Z,123.29
2023-04-29T03:01:07.751Z,121.23
2023-04-29T03:02:07.875Z,120.71
2023-04-29T03:03:08.180Z,125.13
2023-04-29T03:04:08.379Z,123.93
2023-04-29T03:05:08.012Z,121.09
2023-04-29T03:06:08.021Z,121.20
2023-04-29T03:07:08.100Z,121.93
2023-04-29T03:08:08.030Z,121.62
2023-04-29T03:09:08.052Z,121.86
2023-04-29T03:10:08.147Z,122.45
2023-04-29T03:11:08.211Z,124.65
2023-04-29T03:12:08.331Z,123.42
2023-04-29T03:13:08.324Z,123.46
2023-04-29T03:14:08.322Z,122.04
2023-04-29T03:15:08.314Z,121.59
2023-04-29T03:16:08.401Z,124.48
2023-04-29T03:17:08.415Z,124.01
2023-04-29T03:18:08.412Z,122.70
2023-04-29T03:19:08.412Z,123.72
2023-04-29T03:20:08.421Z,122.19
2023-04-29T03:21:08.390Z,123.42
2023-04-29T03:22:08.434Z,121.86
2023-04-29T03:23:08.438Z,122.67
2023-04-29T03:24:08.479Z,123.36
2023-04-29T03:25:08.578Z,123.31
2023-04-29T03:26:08.774Z,124.51
2023-04-29T03:27:08.716Z,122.58
2023-04-29T03:28:08.718Z,121.46
2023-04-29T03:29:08.728Z,123.11
2023-04-29T03:30:08.739Z,123.53
2023-04-29T03:31:08.817Z,122.14
2023-04-29T03:32:08.857Z,122.77
2023-04-29T03:33:08.978Z,123.09
2023-04-29T03:34:09.023Z,122.98
2023-04-29T03:35:09.091Z,123.33
2023-04-29T03:36:09.085Z,123.63
2023-04-29T03:37:09.091Z,121.89
2023-04-29T03:38:09.075Z,123.30
2023-04-29T03:39:09.094Z,123.66
2023-04-29T03:40:09.094Z,123.57
2023-04-29T03:41:09.115Z,125.13
2023-04-29T03:42:09.143Z,122.37
2023-04-29T03:43:09.142Z,124.33
2023-04-29T03:44:09.128Z,123.42
2023-04-29T03:45:09.195Z,124.55
2023-04-29T03:46:09.238Z,124.42
2023-04-29T03:47:09.214Z,125.81
2023-04-29T03:48:09.291Z,126.18
2023-04-29T03:49:09.232Z,124.64
2023-04-29T03:50:09.249Z,124.83
2023-04-29T03:51:09.337Z,126.15
2023-04-29T03:52:09.392Z,122.83
2023-04-29T03:53:09.548Z,122.44
2023-04-29T03:54:09.638Z,123.34
2023-04-29T03:55:09.746Z,121.84
2023-04-29T03:56:09.842Z,123.46
2023-04-29T03:57:09.929Z,124.06
2023-04-29T03:58:09.928Z,123.09
2023-04-29T03:59:09.950Z,122.02
2023-04-29T04:00:09.979Z,124.51
2023-04-29T04:01:09.968Z,120.94
2023-04-29T04:02:10.024Z,122.75
2023-04-29T04:03:10.105Z,121.47
2023-04-29T04:04:10.258Z,123.44
2023-04-29T04:05:10.344Z,121.56
2023-04-29T04:06:10.391Z,125.31
2023-04-29T04:07:10.483Z,122.76
2023-04-29T04:08:10.488Z,122.56
2023-04-29T04:09:10.481Z,124.30
2023-04-29T04:10:10.508Z,123.36
2023-04-29T04:11:10.491Z,122.34
2023-04-29T04:12:10.508Z,122.82
2023-04-29T04:13:10.553Z,120.92
2023-04-29T04:14:10.592Z,122.06
2023-04-29T04:15:10.637Z,125.17
2023-04-29T04:16:10.624Z,123.98
2023-04-29T04:17:10.636Z,123.27
2023-04-29T04:18:10.631Z,125.87
2023-04-29T04:19:10.691Z,122.57
2023-04-29T04:20:10.708Z,120.87
2023-04-29T04:21:10.705Z,122.92
2023-04-29T04:22:12.869Z,124.30
2023-04-29T04:23:10.733Z,124.29
2023-04-29T04:24:10.741Z,124.87
2023-04-29T04:25:10.852Z,122.39
2023-04-29T04:26:10.949Z,123.50
2023-04-29T04:27:11.070Z,125.64
2023-04-29T04:28:11.093Z,122.58
2023-04-29T04:29:11.193Z,123.30
2023-04-29T04:30:11.088Z,124.18
2023-04-29T04:31:11.148Z,123.31
2023-04-29T04:32:11.108Z,124.39
2023-04-29T04:33:11.129Z,122.81
2023-04-29T04:34:11.177Z,121.93
2023-04-29T04:35:11.152Z,123.50
2023-04-29T04:36:11.145Z,125.58
2023-04-29T04:37:11.201Z,123.88
2023-04-29T04:38:11.212Z,124.07
2023-04-29T04:39:11.361Z,124.26
2023-04-29T04:40:11.268Z,128.03
2023-04-29T04:41:11.282Z,123.98
2023-04-29T04:42:11.316Z,124.00
2023-04-29T04:43:11.391Z,125.20
2023-04-29T04:44:11.556Z,124.33
2023-04-29T04:45:11.611Z,126.54
2023-04-29T04:46:11.686Z,123.05
2023-04-29T04:47:11.600Z,122.00
2023-04-29T04:48:11.622Z,122.81
2023-04-29T04:49:11.647Z,123.78
2023-04-29T04:50:11.815Z,122.85
2023-04-29T04:51:11.796Z,123.07
2023-04-29T04:52:11.754Z,123.32
2023-04-29T04:53:11.825Z,123.25
2023-04-29T04:54:11.881Z,122.24
2023-04-29T04:55:13.204Z,120.98
2023-04-29T04:56:12.038Z,126.80
2023-04-29T04:57:11.995Z,125.86
2023-04-29T04:58:12.052Z,126.38
2023-04-29T04:59:12.003Z,123.21
2023-04-29T05:00:11.990Z,122.92
2023-04-29T05:01:12.029Z,125.53
2023-04-29T05:02:12.008Z,123.92
2023-04-29T05:03:12.026Z,125.92
2023-04-29T05:04:12.185Z,123.40
2023-04-29T05:05:12.007Z,124.59
2023-04-29T05:06:11.923Z,122.42
2023-04-29T05:07:11.926Z,121.39
2023-04-29T05:08:11.916Z,122.31
2023-04-29T05:09:11.932Z,124.52
2023-04-29T05:10:11.891Z,123.50
2023-04-29T05:11:11.882Z,122.06
2023-04-29T05:12:11.881Z,123.79
2023-04-29T05:13:11.908Z,122.45
2023-04-29T05:14:11.876Z,124.68
2023-04-29T05:15:11.879Z,123.22
2023-04-29T05:16:11.891Z,122.00
2023-04-29T05:17:11.863Z,124.41
2023-04-29T05:18:11.867Z,124.50
2023-04-29T05:19:11.844Z,120.50
2023-04-29T05:20:11.847Z,125.63
2023-04-29T05:21:11.838Z,124.29
2023-04-29T05:22:11.807Z,123.49
2023-04-29T05:23:11.829Z,123.10
2023-04-29T05:24:11.803Z,123.91
2023-04-29T05:25:11.780Z,123.40
2023-04-29T05:26:11.819Z,122.16
2023-04-29T05:27:11.790Z,126.96
2023-04-29T05:28:11.795Z,124.34
2023-04-29T05:29:11.845Z,124.85
2023-04-29T05:30:11.848Z,125.49
2023-04-29T05:31:11.879Z,123.63
2023-04-29T05:32:11.838Z,124.99
2023-04-29T05:33:11.828Z,123.74
2023-04-29T05:34:11.832Z,124.72
2023-04-29T05:35:11.826Z,124.38
2023-04-29T05:36:11.813Z,122.28
2023-04-29T05:37:11.798Z,123.09
2023-04-29T05:38:11.800Z,124.15
2023-04-29T05:39:11.771Z,121.34
2023-04-29T05:40:12.048Z,121.86
2023-04-29T05:41:11.796Z,120.87
2023-04-29T05:42:11.765Z,123.92
2023-04-29T05:43:11.727Z,124.00
2023-04-29T05:44:11.730Z,122.57
2023-04-29T05:45:11.744Z,121.96
2023-04-29T05:46:11.782Z,122.61
2023-04-29T05:47:11.762Z,123.91
2023-04-29T05:48:11.733Z,122.09
2023-04-29T05:49:11.724Z,123.20
2023-04-29T05:50:11.743Z,123.49
2023-04-29T05:51:11.712Z,121.88
2023-04-29T05:52:11.684Z,123.68
2023-04-29T05:53:11.656Z,122.83
2023-04-29T05:54:11.669Z,124.80
2023-04-29T05:55:11.682Z,122.31
2023-04-29T05:56:11.687Z,124.08
2023-04-29T05:57:11.685Z,124.59
2023-04-29T05:58:11.645Z,119.91
2023-04-29T05:59:11.643Z,121.70
2023-04-29T06:00:11.644Z,124.50
2023-04-29T06:01:11.663Z,122.06
2023-04-29T06:02:11.640Z,122.79
2023-04-29T06:03:11.709Z,126.07
2023-04-29T06:04:11.966Z,125.90
2023-04-29T06:05:12.167Z,121.98
2023-04-29T06:06:11.923Z,124.26
2023-04-29T06:07:11.769Z,122.72
2023-04-29T06:08:11.760Z,124.70
2023-04-29T06:09:23.986Z,123.29
2023-04-29T06:10:12.936Z,123.43
2023-04-29T06:11:11.886Z,123.64
2023-04-29T06:12:11.930Z,123.73
2023-04-29T06:13:11.910Z,124.72
2023-04-29T06:14:11.880Z,124.56
2023-04-29T06:15:11.901Z,124.55
2023-04-29T06:16:11.935Z,123.29
2023-04-29T06:17:11.858Z,125.07
2023-04-29T06:18:11.829Z,124.89
2023-04-29T06:19:12.381Z,123.87
2023-04-29T06:20:11.836Z,126.31
2023-04-29T06:21:11.808Z,121.61
2023-04-29T06:22:11.808Z,125.00
2023-04-29T06:23:11.796Z,124.07
2023-04-29T06:24:11.809Z,124.44
2023-04-29T06:25:11.777Z,122.58
2023-04-29T06:26:11.815Z,122.66
2023-04-29T06:27:12.026Z,126.52
2023-04-29T06:28:12.220Z,126.16
2023-04-29T06:29:12.385Z,126.42
2023-04-29T06:30:12.510Z,125.05
2023-04-29T06:31:12.735Z,121.78
2023-04-29T06:32:12.879Z,125.03
2023-04-29T06:33:13.016Z,125.00
2023-04-29T06:34:13.190Z,125.96
2023-04-29T06:35:13.336Z,126.26
2023-04-29T06:36:13.509Z,125.50
2023-04-29T06:37:13.631Z,124.81
2023-04-29T06:38:13.765Z,124.77
2023-04-29T06:39:13.864Z,124.90
2023-04-29T06:40:14.006Z,127.09
2023-04-29T06:41:14.025Z,127.03
2023-04-29T06:42:14.090Z,129.03
2023-04-29T06:43:14.075Z,123.72
2023-04-29T06:44:14.126Z,125.14
2023-04-29T06:45:14.174Z,125.05
2023-04-29T06:46:14.251Z,124.59
2023-04-29T06:47:14.262Z,125.51
2023-04-29T06:48:14.350Z,124.92
2023-04-29T06:49:14.383Z,124.54
2023-04-29T06:50:14.470Z,122.40
2023-04-29T06:51:14.522Z,126.17
2023-04-29T06:52:14.551Z,123.58
2023-04-29T06:53:14.630Z,124.20
2023-04-29T06:54:14.669Z,124.49
2023-04-29T06:55:14.760Z,125.79
2023-04-29T06:56:16.659Z,123.26
2023-04-29T06:57:14.852Z,126.27
2023-04-29T06:58:14.902Z,123.34
2023-04-29T06:59:14.965Z,123.35
2023-04-29T07:00:15.021Z,123.96
2023-04-29T07:01:15.122Z,122.95
2023-04-29T07:02:15.155Z,124.41
2023-04-29T07:03:15.238Z,123.52
2023-04-29T07:04:15.296Z,125.80
2023-04-29T07:05:15.309Z,126.02
2023-04-29T07:06:15.391Z,125.70
2023-04-29T07:07:15.444Z,119.38
2023-04-29T07:08:15.511Z,123.93
2023-04-29T07:09:15.564Z,122.25
2023-04-29T07:10:15.688Z,127.15
2023-04-29T07:11:15.710Z,122.86
2023-04-29T07:12:15.752Z,125.01
2023-04-29T07:13:15.756Z,124.25
2023-04-29T07:14:15.864Z,124.68
2023-04-29T07:15:15.870Z,121.73
2023-04-29T07:16:15.980Z,124.16
2023-04-29T07:17:15.982Z,125.70
2023-04-29T07:18:16.072Z,122.91
2023-04-29T07:19:16.072Z,124.24
2023-04-29T07:20:16.128Z,126.27
2023-04-29T07:21:16.185Z,125.21
2023-04-29T07:22:16.226Z,123.32
2023-04-29T07:23:16.301Z,124.09
2023-04-29T07:24:16.331Z,128.68
2023-04-29T07:25:16.398Z,123.96
2023-04-29T07:26:16.459Z,123.41
2023-04-29T07:27:16.512Z,127.86
2023-04-29T07:28:16.578Z,123.25
2023-04-29T07:29:16.587Z,127.52
2023-04-29T07:30:16.640Z,127.64
2023-04-29T07:31:16.832Z,122.53
2023-04-29T07:32:16.777Z,127.59
2023-04-29T07:33:16.806Z,130.14
2023-04-29T07:34:16.879Z,128.08
2023-04-29T07:35:16.901Z,128.88
2023-04-29T07:36:16.981Z,126.09
2023-04-29T07:37:17.002Z,126.05
2023-04-29T07:38:17.077Z,127.89
2023-04-29T07:39:17.161Z,126.56
2023-04-29T07:40:17.178Z,127.71
2023-04-29T07:41:17.256Z,126.69
2023-04-29T07:42:17.306Z,126.96
2023-04-29T07:43:17.354Z,125.34
2023-04-29T07:44:17.420Z,128.98
2023-04-29T07:45:17.441Z,127.14
2023-04-29T07:46:17.569Z,127.35
2023-04-29T07:47:17.593Z,127.89
2023-04-29T07:48:17.640Z,129.66
2023-04-29T07:49:17.701Z,131.59
2023-04-29T07:50:17.752Z,130.27
2023-04-29T07:51:17.822Z,126.64
2023-04-29T07:52:17.873Z,130.58
2023-04-29T07:53:17.911Z,127.62
2023-04-29T07:54:17.980Z,127.37
2023-04-29T07:55:18.012Z,128.41
2023-04-29T07:56:18.061Z,128.97
2023-04-29T07:57:18.166Z,129.53
2023-04-29T07:58:18.249Z,128.55
2023-04-29T07:59:18.245Z,130.21
2023-04-29T08:00:18.305Z,133.44
2023-04-29T08:01:18.385Z,127.51
2023-04-29T08:02:18.456Z,126.35
2023-04-29T08:03:18.669Z,128.07
2023-04-29T08:04:18.716Z,129.44
2023-04-29T08:05:18.793Z,131.18
2023-04-29T08:06:18.879Z,129.75
2023-04-29T08:07:18.672Z,131.88
2023-04-29T08:08:18.759Z,128.46
2023-04-29T08:09:18.804Z,133.12
2023-04-29T08:10:18.851Z,133.00
2023-04-29T08:11:18.893Z,129.78
2023-04-29T08:12:18.974Z,131.12
2023-04-29T08:13:18.991Z,130.75
2023-04-29T08:14:19.034Z,132.34
2023-04-29T08:15:19.082Z,129.01
2023-04-29T08:16:19.240Z,135.44
2023-04-29T08:17:19.234Z,127.47
2023-04-29T08:18:19.235Z,130.04
2023-04-29T08:19:19.305Z,129.09
2023-04-29T08:20:19.375Z,132.00
2023-04-29T08:21:19.410Z,131.02
2023-04-29T08:22:19.456Z,130.06
2023-04-29T08:23:19.507Z,132.99
2023-04-29T08:24:19.518Z,128.99
2023-04-29T08:25:19.556Z,131.25
2023-04-29T08:26:19.929Z,130.16
2023-04-29T08:27:19.677Z,129.99
2023-04-29T08:28:19.824Z,129.98
2023-04-29T08:29:19.767Z,131.29
2023-04-29T08:30:19.838Z,130.96
2023-04-29T08:31:19.909Z,129.90
2023-04-29T08:32:19.940Z,129.56
2023-04-29T08:33:19.945Z,131.12
2023-04-29T08:34:20.008Z,131.90
2023-04-29T08:35:20.060Z,128.50
2023-04-29T08:36:20.067Z,132.48
2023-04-29T08:37:20.112Z,132.21
2023-04-29T08:38:20.160Z,132.18
2023-04-29T08:39:20.189Z,136.30
2023-04-29T08:40:20.267Z,133.73
2023-04-29T08:41:20.289Z,132.65
2023-04-29T08:42:20.366Z,132.35
2023-04-29T08:43:20.420Z,131.36
2023-04-29T08:44:20.468Z,132.93
2023-04-29T08:45:20.474Z,133.18
2023-04-29T08:46:20.634Z,134.93
2023-04-29T08:47:20.631Z,132.65
2023-04-29T08:48:20.617Z,137.33
2023-04-29T08:49:20.662Z,133.04
2023-04-29T08:50:20.700Z,134.39
2023-04-29T08:51:20.722Z,133.36
2023-04-29T08:52:20.802Z,133.14
2023-04-29T08:53:20.858Z,135.24
2023-04-29T08:54:20.864Z,136.37
2023-04-29T08:55:20.901Z,136.05
2023-04-29T08:56:20.933Z,138.64
2023-04-29T08:57:20.985Z,135.92
2023-04-29T08:58:21.215Z,136.07
2023-04-29T08:59:21.067Z,136.44
2023-04-29T09:00:21.142Z,136.32
2023-04-29T09:01:21.197Z,134.18
2023-04-29T09:02:21.279Z,135.74
2023-04-29T09:03:22.242Z,137.04
2023-04-29T09:04:21.293Z,137.29
2023-04-29T09:05:21.373Z,137.74
2023-04-29T09:06:21.332Z,136.24
2023-04-29T09:07:21.383Z,135.43
2023-04-29T09:08:21.430Z,137.30
2023-04-29T09:09:21.453Z,134.25
2023-04-29T09:10:21.533Z,137.00
2023-04-29T09:11:21.544Z,135.88
2023-04-29T09:12:21.574Z,135.97
2023-04-29T09:13:21.648Z,138.76
2023-04-29T09:14:21.634Z,136.26
2023-04-29T09:15:21.661Z,136.02
2023-04-29T09:16:21.750Z,134.67
2023-04-29T09:17:21.780Z,137.38
2023-04-29T09:18:21.833Z,137.13
2023-04-29T09:19:21.824Z,129.04
2023-04-29T09:20:22.082Z,134.09
2023-04-29T09:21:22.838Z,135.53
2023-04-29T09:22:21.955Z,131.98
2023-04-29T09:23:21.961Z,133.05
2023-04-29T09:24:22.008Z,133.94
2023-04-29T09:25:22.050Z,133.90
2023-04-29T09:26:22.092Z,133.51
2023-04-29T09:27:22.117Z,131.33
2023-04-29T09:28:22.177Z,130.86
2023-04-29T09:29:22.180Z,132.76
2023-04-29T09:30:22.224Z,131.34
2023-04-29T09:31:22.312Z,132.07
2023-04-29T09:32:22.334Z,131.06
2023-04-29T09:33:22.312Z,127.80
2023-04-29T09:34:22.353Z,131.65
2023-04-29T09:35:22.373Z,131.05
2023-04-29T09:36:22.383Z,127.50
2023-04-29T09:37:22.444Z,130.62
2023-04-29T09:38:22.452Z,126.85
2023-04-29T09:39:22.564Z,127.35
2023-04-29T09:40:22.491Z,125.50
2023-04-29T09:42:42.509Z,25.00
2023-04-29T09:45:09.692Z,25.00
2023-04-29T09:46:02.252Z,25.00
2023-04-29T09:47:02.196Z,25.00
2023-04-29T09:48:01.897Z,25.00
2023-04-29T09:49:01.849Z,25.00
2023-04-29T09:50:01.795Z,25.00
2023-04-29T09:51:01.846Z,26.92
2023-04-29T09:52:01.797Z,27.63
2023-04-29T09:53:01.813Z,25.27
2023-04-29T09:54:01.810Z,25.24
2023-04-29T09:55:01.757Z,26.41
2023-04-29T10:00:31.318Z,25.00
2023-04-29T10:01:31.517Z,25.00
2023-04-29T10:02:31.677Z,25.00
2023-04-29T10:03:31.919Z,25.00
2023-04-29T10:04:31.914Z,25.00
2023-04-29T10:05:32.003Z,25.00
2023-04-29T10:06:32.081Z,25.00
2023-04-29T10:07:32.231Z,24.34
2023-04-29T10:08:32.458Z,27.01
2023-04-29T10:09:32.629Z,25.00
2023-04-29T10:10:32.752Z,28.37
2023-04-29T10:11:32.853Z,25.33
2023-04-29T10:12:33.007Z,28.22
2023-04-29T10:13:33.136Z,25.00
2023-04-29T10:14:33.335Z,27.80
2023-04-29T10:15:33.471Z,25.82
2023-04-29T10:16:33.649Z,26.74
2023-04-29T10:17:33.695Z,25.24
2023-04-29T10:18:33.906Z,25.86
2023-04-29T10:19:34.025Z,26.89
2023-04-29T10:20:34.194Z,28.06
2023-04-29T10:21:34.268Z,25.71
2023-04-29T10:22:34.494Z,26.48
2023-04-29T10:23:34.651Z,27.81
2023-04-29T10:24:34.796Z,26.51
2023-04-29T10:25:35.002Z,30.02
2023-04-29T10:26:35.105Z,26.50
2023-04-29T10:27:35.255Z,26.34
2023-04-29T10:28:35.640Z,27.52
2023-04-29T10:29:35.555Z,28.19
2023-04-29T10:30:35.683Z,26.49
2023-04-29T10:31:35.926Z,27.27
2023-04-29T10:32:49.926Z,25.67
2023-04-29T10:33:37.113Z,25.97
2023-04-29T10:34:35.990Z,25.99
2023-04-29T10:35:35.979Z,25.56
2023-04-29T10:36:35.986Z,26.81
2023-04-29T10:37:35.941Z,25.48
2023-04-29T10:38:35.990Z,26.53
2023-04-29T10:39:35.938Z,29.84
2023-04-29T10:40:35.945Z,25.81
2023-04-29T10:41:35.931Z,27.81
2023-04-29T10:42:36.141Z,26.82
2023-04-29T10:43:35.902Z,28.46
2023-04-29T10:44:35.912Z,30.93
2023-04-29T10:45:35.910Z,30.71
2023-04-29T10:46:35.919Z,28.20
2023-04-29T10:47:35.890Z,27.18
2023-04-29T10:48:35.859Z,27.47
2023-04-29T10:49:36.123Z,27.89
2023-04-29T10:50:35.816Z,28.26
2023-04-29T10:51:35.888Z,27.83
2023-04-29T10:52:35.871Z,31.85
2023-04-29T10:53:35.838Z,27.23
2023-04-29T10:54:35.844Z,29.31
2023-04-29T10:55:35.836Z,29.92
2023-04-29T10:56:35.823Z,27.56
2023-04-29T10:57:35.772Z,27.99
2023-04-29T10:58:35.800Z,29.75
2023-04-29T10:59:35.802Z,29.01
2023-04-29T11:00:35.788Z,27.69
2023-04-29T11:01:35.913Z,30.86
2023-04-29T11:02:35.912Z,29.08
2023-04-29T11:03:35.921Z,31.18
2023-04-29T11:04:35.790Z,28.80
2023-04-29T11:05:35.819Z,29.70
2023-04-29T11:06:35.797Z,29.06
2023-04-29T11:07:35.744Z,29.86
2023-04-29T11:08:35.723Z,32.13
2023-04-29T11:09:35.741Z,29.16
2023-04-29T11:10:35.760Z,29.45
2023-04-29T11:11:35.683Z,28.55
2023-04-29T11:12:36.161Z,30.40
2023-04-29T11:13:35.667Z,30.69
2023-04-29T11:14:35.687Z,28.20
2023-04-29T11:15:35.701Z,29.94
2023-04-29T11:16:35.700Z,30.64
2023-04-29T11:17:35.735Z,32.28
2023-04-29T11:18:35.666Z,29.56
2023-04-29T11:19:35.701Z,29.72
2023-04-29T11:20:35.614Z,29.94
2023-04-29T11:21:35.625Z,30.57
2023-04-29T11:22:35.671Z,28.04
2023-04-29T11:23:35.640Z,30.22
2023-04-29T11:24:35.626Z,31.87
2023-04-29T11:25:36.491Z,30.61
2023-04-29T11:26:35.620Z,31.89
2023-04-29T11:27:35.651Z,29.91
2023-04-29T11:28:35.574Z,32.10
2023-04-29T11:29:35.580Z,33.27
2023-04-29T11:30:35.674Z,29.53
2023-04-29T11:31:35.768Z,30.62
2023-04-29T11:32:35.659Z,31.01
2023-04-29T11:33:35.673Z,29.75
2023-04-29T11:34:35.596Z,30.21
2023-04-29T11:35:35.601Z,33.88
2023-04-29T11:36:35.582Z,31.70
2023-04-29T11:37:35.572Z,33.78
2023-04-29T11:38:35.619Z,31.40
2023-04-29T11:39:35.608Z,31.93
2023-04-29T11:40:35.626Z,31.93
2023-04-29T11:41:35.590Z,31.93
2023-04-29T11:42:35.627Z,30.13
2023-04-29T11:43:35.585Z,32.37
2023-04-29T11:44:35.582Z,30.15
2023-04-29T11:45:35.553Z,32.82
2023-04-29T11:46:35.633Z,32.88
2023-04-29T11:47:35.601Z,29.62
2023-04-29T11:48:35.582Z,33.94
2023-04-29T11:49:35.583Z,32.10
2023-04-29T11:50:35.597Z,29.25
2023-04-29T11:51:35.589Z,31.46
2023-04-29T11:52:35.647Z,30.68
2023-04-29T11:53:35.591Z,33.45
2023-04-29T11:54:35.573Z,29.27
2023-04-29T11:55:35.574Z,33.97
2023-04-29T11:56:35.580Z,33.01
2023-04-29T11:57:35.596Z,31.59
2023-04-29T11:58:35.598Z,32.12
2023-04-29T11:59:35.600Z,32.76
2023-04-29T12:00:35.650Z,32.84
2023-04-29T12:01:35.574Z,34.59
2023-04-29T12:02:35.758Z,34.12
2023-04-29T12:03:35.881Z,37.66
2023-04-29T12:04:35.685Z,31.75
2023-04-29T12:05:35.739Z,34.42
2023-04-29T12:06:35.588Z,36.10
2023-04-29T12:07:35.730Z,33.25
2023-04-29T12:08:35.526Z,33.53
2023-04-29T12:09:35.574Z,33.03
2023-04-29T12:10:35.540Z,37.81
2023-04-29T12:11:35.555Z,36.17
2023-04-29T12:12:35.560Z,35.28
2023-04-29T12:13:35.569Z,33.96
2023-04-29T12:14:35.553Z,34.61
2023-04-29T12:15:35.716Z,34.46
2023-04-29T12:16:35.624Z,35.94
2023-04-29T12:17:35.650Z,36.10
2023-04-29T12:18:35.610Z,36.26
2023-04-29T12:19:35.612Z,36.22
2023-04-29T12:20:35.695Z,35.43
2023-04-29T12:21:35.735Z,36.14
2023-04-29T12:22:35.720Z,38.04
2023-04-29T12:23:35.746Z,38.01
2023-04-29T12:24:35.813Z,33.82
2023-04-29T12:25:35.844Z,36.27
2023-04-29T12:26:35.854Z,36.50
2023-04-29T12:27:35.916Z,39.55
2023-04-29T12:28:35.981Z,34.94
2023-04-29T12:29:36.074Z,38.74
2023-04-29T12:30:36.161Z,37.73
2023-04-29T12:31:36.192Z,36.66
2023-04-29T12:32:36.268Z,37.61
2023-04-29T12:33:36.288Z,38.23
2023-04-29T12:34:36.334Z,38.72
2023-04-29T12:35:36.439Z,36.08
2023-04-29T12:36:36.449Z,36.48
2023-04-29T12:37:36.534Z,37.91
2023-04-29T12:38:36.586Z,39.63
2023-04-29T12:39:36.651Z,35.03
2023-04-29T12:40:36.687Z,35.40